createdAt,value
2018-11-03T00:01:57.083Z,6.13
2018-11-03T00:04:25.805Z,6.10
2018-11-03T00:06:54.749Z,6.10
2018-11-03T00:09:23.447Z,6.03
2018-11-03T00:11:52.140Z,6.23
2018-11-03T00:14:20.872Z,6.27
2018-11-03T00:16:49.658Z,6.53
2018-11-03T00:19:18.526Z,6.17
2018-11-03T00:21:47.322Z,6.77
2018-11-03T00:24:16.067Z,6.43
2018-11-03T00:26:44.793Z,6.10
2018-11-03T00:29:13.539Z,6.77
2018-11-03T00:31:42.432Z,6.00
2018-11-03T00:34:11.168Z,7.23
2018-11-03T00:36:39.928Z,7.30
2018-11-03T00:39:10.744Z,6.73
2018-11-03T00:41:39.613Z,7.17
2018-11-03T00:44:09.130Z,6.83
2018-11-03T00:46:37.881Z,6.90
2018-11-03T00:49:06.824Z,7.33
2018-11-03T00:51:35.613Z,6.87
2018-11-03T00:54:04.369Z,6.90
2018-11-03T00:56:33.441Z,6.90
2018-11-03T00:59:02.351Z,6.77
2018-11-03T01:01:31.286Z,7.03
2018-11-03T01:03:59.973Z,7.60
2018-11-03T01:06:29.183Z,7.10
2018-11-03T01:08:57.916Z,6.73
2018-11-03T01:11:26.639Z,7.30
2018-11-03T01:13:55.427Z,7.33
2018-11-03T01:16:24.116Z,7.70
2018-11-03T01:18:52.852Z,7.03
2018-11-03T01:21:21.648Z,8.30
2018-11-03T01:23:50.463Z,8.50
2018-11-03T01:26:19.164Z,9.03
2018-11-03T01:28:48.011Z,9.13
2018-11-03T01:31:16.810Z,9.20
2018-11-03T01:33:45.460Z,8.80
2018-11-03T01:36:14.333Z,8.03
2018-11-03T01:38:43.033Z,8.30
2018-11-03T01:41:11.755Z,8.60
2018-11-03T01:43:40.743Z,9.60
2018-11-03T01:46:09.455Z,9.23
2018-11-03T01:48:38.326Z,8.43
2018-11-03T01:51:07.027Z,8.83
2018-11-03T01:53:35.815Z,8.47
2018-11-03T01:56:04.517Z,8.17
2018-11-03T01:58:33.563Z,9.23
2018-11-03T02:01:02.409Z,8.40
2018-11-03T02:03:31.170Z,9.33
2018-11-03T02:05:59.852Z,9.57
2018-11-03T02:08:28.568Z,8.87
2018-11-03T02:10:57.317Z,9.60
2018-11-03T02:13:26.091Z,8.60
2018-11-03T02:15:54.977Z,8.77
2018-11-03T02:18:23.774Z,8.50
2018-11-03T02:20:52.548Z,8.47
2018-11-03T02:23:21.261Z,8.73
2018-11-03T02:25:50.272Z,9.13
2018-11-03T02:28:19.019Z,8.40
2018-11-03T02:30:47.703Z,9.37
2018-11-03T02:33:16.412Z,8.97
2018-11-03T02:35:45.117Z,9.10
2018-11-03T02:38:13.803Z,9.43
2018-11-03T02:40:42.538Z,9.23
2018-11-03T02:43:11.236Z,8.13
2018-11-03T02:45:40.032Z,9.13
2018-11-03T02:48:08.757Z,9.13
2018-11-03T02:50:37.475Z,8.70
2018-11-03T02:53:06.288Z,8.97
2018-11-03T02:55:34.988Z,9.37
2018-11-03T02:58:03.717Z,9.23
2018-11-03T03:00:32.618Z,9.80
2018-11-03T03:03:01.443Z,9.83
2018-11-03T03:05:30.146Z,9.80
2018-11-03T03:07:58.888Z,9.67
2018-11-03T03:10:27.712Z,9.17
2018-11-03T03:12:56.616Z,9.30
2018-11-03T03:15:25.290Z,9.50
2018-11-03T03:17:53.962Z,9.37
2018-11-03T03:20:22.739Z,10.03
2018-11-03T03:22:51.439Z,9.40
2018-11-03T03:25:20.261Z,9.23
2018-11-03T03:27:49.005Z,9.20
2018-11-03T03:30:17.682Z,9.53
2018-11-03T03:32:46.419Z,8.90
2018-11-03T03:35:15.193Z,9.23
2018-11-03T03:37:43.907Z,8.70
2018-11-03T03:40:12.778Z,9.47
2018-11-03T03:42:41.475Z,9.23
2018-11-03T03:45:10.829Z,9.70
2018-11-03T03:47:39.852Z,9.03
2018-11-03T03:50:09.843Z,9.60
2018-11-03T03:52:38.892Z,10.27
2018-11-03T03:55:08.152Z,9.73
2018-11-03T03:57:37.250Z,9.37
2018-11-03T04:00:07.994Z,9.90
2018-11-03T04:02:36.673Z,9.60
2018-11-03T04:05:05.726Z,9.43
2018-11-03T04:07:34.470Z,9.20
2018-11-03T04:10:03.210Z,9.30
2018-11-03T04:12:31.931Z,9.03
2018-11-03T04:15:00.651Z,9.73
2018-11-03T04:17:29.537Z,9.67
2018-11-03T04:19:58.235Z,9.30
2018-11-03T04:22:27.042Z,10.13
2018-11-03T04:24:56.197Z,10.03
2018-11-03T04:27:24.899Z,9.83
2018-11-03T04:29:53.645Z,10.73
2018-11-03T04:32:22.381Z,10.07
2018-11-03T04:34:51.156Z,10.17
2018-11-03T04:37:19.858Z,9.70
2018-11-03T04:39:48.836Z,10.20
2018-11-03T04:42:17.553Z,10.10
2018-11-03T04:44:46.269Z,9.43
2018-11-03T04:47:14.978Z,9.83
2018-11-03T04:49:43.719Z,10.10
2018-11-03T04:52:12.411Z,10.27
2018-11-03T04:54:41.164Z,10.03
2018-11-03T04:57:09.818Z,10.97
2018-11-03T04:59:38.521Z,10.77
2018-11-03T05:02:07.200Z,10.27
2018-11-03T05:04:36.033Z,11.03
2018-11-03T05:07:05.111Z,10.10
2018-11-03T05:09:34.070Z,10.50
2018-11-03T05:12:02.787Z,10.40
2018-11-03T05:14:31.519Z,10.70
2018-11-03T05:17:00.221Z,11.10
2018-11-03T05:19:29.428Z,10.77
2018-11-03T05:21:58.192Z,10.13
2018-11-03T05:24:26.884Z,11.10
2018-11-03T05:26:55.738Z,11.10
2018-11-03T05:29:24.440Z,11.10
2018-11-03T05:31:53.462Z,10.83
2018-11-03T05:34:22.183Z,11.20
2018-11-03T05:36:51.230Z,12.07
2018-11-03T05:39:19.912Z,12.13
2018-11-03T05:41:48.736Z,11.37
2018-11-03T05:44:17.405Z,11.63
2018-11-03T05:46:46.085Z,12.50
2018-11-03T05:49:14.834Z,12.80
2018-11-03T05:51:43.496Z,12.93
2018-11-03T05:54:12.403Z,12.07
2018-11-03T05:56:41.096Z,13.20
2018-11-03T05:59:09.796Z,12.87
2018-11-03T06:01:38.666Z,12.77
2018-11-03T06:04:07.364Z,13.43
2018-11-03T06:06:36.273Z,13.87
2018-11-03T06:09:06.746Z,13.57
2018-11-03T06:11:35.575Z,12.63
2018-11-03T06:14:04.360Z,12.87
2018-11-03T06:16:33.100Z,12.73
2018-11-03T06:19:01.793Z,13.20
2018-11-03T06:21:30.568Z,13.77
2018-11-03T06:23:59.266Z,13.07
2018-11-03T06:26:28.187Z,13.83
2018-11-03T06:28:56.926Z,13.80
2018-11-03T06:31:25.646Z,13.67
2018-11-03T06:33:54.550Z,13.53
2018-11-03T06:36:23.241Z,13.97
2018-11-03T06:38:51.975Z,13.50
2018-11-03T06:41:20.646Z,14.50
2018-11-03T06:43:49.414Z,14.70
2018-11-03T06:46:18.175Z,13.97
2018-11-03T06:48:46.991Z,13.80
2018-11-03T06:51:15.677Z,14.23
2018-11-03T06:53:44.342Z,13.97
2018-11-03T06:56:13.047Z,14.87
2018-11-03T06:58:41.787Z,15.33
2018-11-03T07:01:10.504Z,14.67
2018-11-03T07:03:39.310Z,14.80
2018-11-03T07:06:07.991Z,14.77
2018-11-03T07:08:36.676Z,14.83
2018-11-03T07:11:05.427Z,15.80
2018-11-03T07:13:34.148Z,15.60
2018-11-03T07:16:02.904Z,16.13
2018-11-03T07:18:31.622Z,15.83
2018-11-03T07:21:00.338Z,16.47
2018-11-03T07:23:29.007Z,16.77
2018-11-03T07:25:57.726Z,17.47
2018-11-03T07:28:26.479Z,17.53
2018-11-03T07:30:56.105Z,17.50
2018-11-03T07:33:24.866Z,18.80
2018-11-03T07:35:53.666Z,17.30
2018-11-03T07:38:22.730Z,18.47
2018-11-03T07:40:51.829Z,17.60
2018-11-03T07:43:20.925Z,17.93
2018-11-03T07:45:49.597Z,18.50
2018-11-03T07:48:18.365Z,18.77
2018-11-03T07:50:47.460Z,19.07
2018-11-03T07:53:16.205Z,19.57
2018-11-03T07:55:44.949Z,18.87
2018-11-03T07:58:13.679Z,19.30
2018-11-03T08:00:42.541Z,19.67
2018-11-03T08:03:11.143Z,19.17
2018-11-03T08:05:39.885Z,20.27
2018-11-03T08:08:08.641Z,19.23
2018-11-03T08:10:37.367Z,20.10
2018-11-03T08:13:06.653Z,18.87
2018-11-03T08:15:35.632Z,20.57
2018-11-03T08:18:04.378Z,20.43
2018-11-03T08:20:33.258Z,22.00
2018-11-03T08:23:01.972Z,20.97
2018-11-03T08:25:30.638Z,22.00
2018-11-03T08:27:59.682Z,20.50
2018-11-03T08:30:28.395Z,21.30
2018-11-03T08:32:57.206Z,22.47
2018-11-03T08:35:25.915Z,22.27
2018-11-03T08:37:54.757Z,22.40
2018-11-03T08:40:23.531Z,21.37
2018-11-03T08:42:52.201Z,22.40
2018-11-03T08:45:21.003Z,22.63
2018-11-03T08:47:49.815Z,23.30
2018-11-03T08:50:18.552Z,22.60
2018-11-03T08:52:47.215Z,24.37
2018-11-03T08:55:15.907Z,22.83
2018-11-03T08:57:44.629Z,22.43
2018-11-03T09:00:14.637Z,22.93
2018-11-03T09:02:43.808Z,21.83
2018-11-03T09:05:13.128Z,22.30
2018-11-03T09:07:41.854Z,22.57
2018-11-03T09:10:12.720Z,22.97
2018-11-03T09:12:41.738Z,22.43
2018-11-03T09:15:11.991Z,21.40
2018-11-03T09:17:41.874Z,22.50
2018-11-03T09:20:11.999Z,21.90
2018-11-03T09:22:41.121Z,23.60
2018-11-03T09:25:13.603Z,23.00
2018-11-03T09:27:43.401Z,23.33
2018-11-03T09:30:14.751Z,21.80
2018-11-03T09:32:43.712Z,21.03
2018-11-03T09:35:13.720Z,22.13
2018-11-03T09:37:42.543Z,23.23
2018-11-03T09:40:13.704Z,21.30
2018-11-03T09:42:43.489Z,21.10
2018-11-03T09:45:12.726Z,22.23
2018-11-03T09:47:42.115Z,21.57
2018-11-03T09:50:12.542Z,21.90
2018-11-03T09:52:41.798Z,21.23
2018-11-03T09:55:14.936Z,20.70
2018-11-03T09:57:44.101Z,23.03
2018-11-03T10:07:02.164Z,21.30
2018-11-03T10:09:31.021Z,21.53
2018-11-03T10:11:59.801Z,22.37
2018-11-03T10:14:28.637Z,23.00
2018-11-03T10:16:57.396Z,20.83
2018-11-03T10:19:26.378Z,20.57
2018-11-03T10:21:55.381Z,20.90
2018-11-03T10:24:24.253Z,20.07
2018-11-03T10:26:53.010Z,20.47
2018-11-03T10:29:21.807Z,19.33
2018-11-03T10:31:50.533Z,18.13
2018-11-03T10:34:19.241Z,18.27
2018-11-03T10:36:48.075Z,17.93
2018-11-03T10:39:16.891Z,18.00
2018-11-03T10:41:45.591Z,18.23
2018-11-03T10:44:14.300Z,18.07
2018-11-03T10:46:42.990Z,16.40
2018-11-03T10:49:11.704Z,16.80
2018-11-03T10:51:40.452Z,15.73
2018-11-03T10:54:09.254Z,16.03
2018-11-03T10:56:37.966Z,15.70
2018-11-03T10:59:06.859Z,15.43
2018-11-03T11:01:41.145Z,15.70
2018-11-03T11:04:15.034Z,15.33
2018-11-03T11:06:48.952Z,14.93
2018-11-03T11:09:22.994Z,13.73
2018-11-03T11:11:57.226Z,14.70
2018-11-03T11:14:25.990Z,15.27
2018-11-03T11:16:54.733Z,13.23
2018-11-03T11:19:23.642Z,12.50
2018-11-03T11:21:52.350Z,11.87
2018-11-03T11:24:21.271Z,12.07
2018-11-03T11:26:49.926Z,12.07
2018-11-03T11:29:18.650Z,11.43
2018-11-03T11:31:47.434Z,11.57
2018-11-03T11:34:16.285Z,11.87
2018-11-03T11:36:45.012Z,11.37
2018-11-03T11:39:13.745Z,10.77
2018-11-03T11:41:42.503Z,11.70
2018-11-03T11:44:11.178Z,10.63
2018-11-03T11:46:39.890Z,11.03
2018-11-03T11:49:08.580Z,10.00
2018-11-03T11:51:37.425Z,9.57
2018-11-03T11:54:06.418Z,9.13
2018-11-03T11:56:35.128Z,9.37
2018-11-03T11:59:03.870Z,8.87
2018-11-03T12:01:33.025Z,8.03
2018-11-03T12:04:01.889Z,7.23
2018-11-03T12:06:30.801Z,7.70
2018-11-03T12:08:59.547Z,6.23
2018-11-03T12:11:28.264Z,6.73
2018-11-03T12:13:57.125Z,6.63
2018-11-03T12:16:25.803Z,6.17
2018-11-03T12:18:54.488Z,5.97
2018-11-03T12:21:23.154Z,5.67
2018-11-03T12:23:51.871Z,5.83
2018-11-03T12:26:20.578Z,5.60
2018-11-03T12:28:49.244Z,5.70
2018-11-03T12:31:17.994Z,5.27
2018-11-03T12:33:47.094Z,4.60
2018-11-03T12:36:15.840Z,5.10
2018-11-03T12:38:44.540Z,5.70
2018-11-03T12:41:13.600Z,4.87
2018-11-03T12:43:42.275Z,5.13
2018-11-03T12:46:10.989Z,5.17
2018-11-03T12:48:39.722Z,4.53
2018-11-03T12:51:08.488Z,4.73
2018-11-03T12:53:37.428Z,5.00
2018-11-03T12:56:06.312Z,5.67
2018-11-03T12:58:35.023Z,5.83
2018-11-03T13:01:03.769Z,5.27
2018-11-03T13:03:32.550Z,4.80
2018-11-03T13:06:01.746Z,5.30
2018-11-03T13:08:30.676Z,5.03
2018-11-03T13:10:59.408Z,5.20
2018-11-03T13:13:28.128Z,5.30
2018-11-03T13:15:56.884Z,5.07
2018-11-03T13:18:25.584Z,4.30
2018-11-03T13:20:54.360Z,4.23
2018-11-03T13:23:23.126Z,4.17
2018-11-03T13:25:51.956Z,4.40
2018-11-03T13:28:20.681Z,4.20
2018-11-03T13:30:49.350Z,7.63
2018-11-03T13:33:18.060Z,8.53
2018-11-03T13:35:46.786Z,4.57
2018-11-03T13:38:15.456Z,4.13
2018-11-03T13:40:44.228Z,4.17
2018-11-03T13:43:12.937Z,5.03
2018-11-03T13:45:41.831Z,5.30
2018-11-03T13:48:10.526Z,5.00
2018-11-03T13:50:39.337Z,5.57
2018-11-03T13:53:08.875Z,5.37
2018-11-03T13:55:37.689Z,6.60
2018-11-03T13:58:06.412Z,5.30
2018-11-03T14:00:35.304Z,5.57
2018-11-03T14:03:04.581Z,5.33
2018-11-03T14:05:33.321Z,5.20
2018-11-03T14:08:02.002Z,5.70
2018-11-03T14:10:30.708Z,5.77
2018-11-03T14:12:59.376Z,4.93
2018-11-03T14:15:28.104Z,5.17
2018-11-03T14:17:56.921Z,5.43
2018-11-03T14:20:25.803Z,5.13
2018-11-03T14:22:54.606Z,5.40
2018-11-03T14:25:23.246Z,5.50
2018-11-03T14:27:51.955Z,5.37
2018-11-03T14:30:20.636Z,5.20
2018-11-03T14:32:49.293Z,5.27
2018-11-03T14:35:17.965Z,4.80
2018-11-03T14:37:46.685Z,4.93
2018-11-03T14:40:16.645Z,5.60
2018-11-03T14:42:46.186Z,6.60
2018-11-03T14:45:15.908Z,6.40
2018-11-03T14:47:44.797Z,5.57
2018-11-03T14:50:13.722Z,6.47
2018-11-03T14:52:43.365Z,6.43
2018-11-03T14:55:12.863Z,6.80
2018-11-03T14:57:41.605Z,6.30
2018-11-03T15:00:13.027Z,7.10
2018-11-03T15:02:42.033Z,6.10
2018-11-03T15:05:11.503Z,6.87
2018-11-03T15:07:40.376Z,6.37
2018-11-03T15:10:10.275Z,6.43
2018-11-03T15:12:39.416Z,7.33
2018-11-03T15:15:09.704Z,6.97
2018-11-03T15:17:38.413Z,7.10
2018-11-03T15:20:08.276Z,7.10
2018-11-03T15:22:37.184Z,7.00
2018-11-03T15:25:07.008Z,7.73
2018-11-03T15:27:36.010Z,7.67
2018-11-03T15:30:05.148Z,7.67
2018-11-03T15:32:33.816Z,7.63
2018-11-03T15:35:02.668Z,8.10
2018-11-03T15:37:31.305Z,7.73
2018-11-03T15:40:00.052Z,8.17
2018-11-03T15:42:28.736Z,7.30
2018-11-03T15:44:57.531Z,7.20
2018-11-03T15:47:26.212Z,7.77
2018-11-03T15:49:54.946Z,8.17
2018-11-03T15:52:23.864Z,7.60
2018-11-03T15:54:52.508Z,7.67
2018-11-03T15:57:21.182Z,8.00
2018-11-03T15:59:49.896Z,8.77
2018-11-03T16:02:18.589Z,8.03
2018-11-03T16:04:47.242Z,8.57
2018-11-03T16:07:15.973Z,7.70
2018-11-03T16:09:44.629Z,8.17
2018-11-03T16:12:13.401Z,9.00
2018-11-03T16:14:42.029Z,9.93
2018-11-03T16:17:10.725Z,10.83
2018-11-03T16:19:39.420Z,10.17
2018-11-03T16:22:08.079Z,9.53
2018-11-03T16:24:36.764Z,9.80
2018-11-03T16:27:06.053Z,10.73
2018-11-03T16:29:34.854Z,10.17
2018-11-03T16:32:03.764Z,10.33
2018-11-03T16:34:33.364Z,10.50
2018-11-03T16:37:02.147Z,10.83
2018-11-03T16:39:30.846Z,11.07
2018-11-03T16:41:59.601Z,10.93
2018-11-03T16:44:28.373Z,11.47
2018-11-03T16:46:57.178Z,11.50
2018-11-03T16:49:25.894Z,12.17
2018-11-03T16:51:54.556Z,12.30
2018-11-03T16:54:27.498Z,13.40
2018-11-03T16:56:56.246Z,14.00
2018-11-03T16:59:24.902Z,14.60
2018-11-03T17:01:53.698Z,14.83
2018-11-03T17:04:22.414Z,14.80
2018-11-03T17:06:51.176Z,15.63
2018-11-03T17:09:19.813Z,15.07
2018-11-03T17:11:48.583Z,15.80
2018-11-03T17:14:17.546Z,15.10
2018-11-03T17:16:46.251Z,14.97
2018-11-03T17:19:14.941Z,14.30
2018-11-03T17:21:43.659Z,14.13
2018-11-03T17:24:12.571Z,14.93
2018-11-03T17:26:41.283Z,14.33
2018-11-03T17:29:09.994Z,15.03
2018-11-03T17:31:38.688Z,15.10
2018-11-03T17:34:07.369Z,14.97
2018-11-03T17:36:36.236Z,13.57
2018-11-03T17:39:07.768Z,14.50
2018-11-03T17:41:36.510Z,13.53
2018-11-03T17:44:05.781Z,13.57
2018-11-03T17:46:34.708Z,16.70
2018-11-03T17:49:03.579Z,16.47
2018-11-03T17:51:32.252Z,16.27
2018-11-03T17:54:00.917Z,15.50
2018-11-03T17:56:29.761Z,14.70
2018-11-03T17:58:58.490Z,14.27
2018-11-03T18:01:27.520Z,13.23
2018-11-03T18:03:56.132Z,13.57
2018-11-03T18:06:25.029Z,13.93
2018-11-03T18:08:53.932Z,14.13
2018-11-03T18:11:22.678Z,14.53
2018-11-03T18:13:51.549Z,14.77
2018-11-03T18:16:20.254Z,14.43
2018-11-03T18:18:49.003Z,14.70
